createdAt,value
2023-01-19T00:01:28.115Z,16.43
2023-01-19T00:03:57.604Z,12.17
2023-01-19T00:06:26.243Z,14.30
2023-01-19T00:08:55.638Z,14.97
2023-01-19T00:11:24.794Z,15.63
2023-01-19T00:13:53.718Z,11.87
2023-01-19T00:16:24.087Z,12.43
2023-01-19T00:18:53.545Z,13.43
2023-01-19T00:21:23.577Z,12.23
2023-01-19T00:23:52.757Z,14.23
2023-01-19T00:26:23.335Z,15.83
2023-01-19T00:28:53.500Z,13.93
2023-01-19T00:31:22.082Z,14.43
2023-01-19T00:33:53.076Z,13.67
2023-01-19T00:36:21.712Z,13.63
2023-01-19T00:38:51.207Z,14.03
2023-01-19T00:41:40.249Z,13.17
2023-01-19T00:44:07.688Z,12.43
2023-01-19T00:46:37.964Z,18.47
2023-01-19T00:49:07.650Z,15.03
2023-01-19T00:51:36.690Z,15.97
2023-01-19T00:54:05.798Z,17.30
2023-01-19T00:56:35.351Z,19.57
2023-01-19T00:59:05.035Z,13.63
2023-01-19T01:01:45.022Z,15.57
2023-01-19T01:04:17.107Z,14.23
2023-01-19T01:06:45.835Z,16.70
2023-01-19T01:09:14.166Z,19.40
2023-01-19T01:11:44.406Z,22.83
2023-01-19T01:14:14.162Z,19.67
2023-01-19T01:16:43.130Z,20.93
2023-01-19T01:19:11.533Z,21.53
2023-01-19T01:21:41.749Z,18.97
2023-01-19T01:24:13.050Z,18.33
2023-01-19T01:26:41.338Z,18.97
2023-01-19T01:29:09.987Z,19.70
2023-01-19T01:31:38.380Z,16.93
2023-01-19T01:34:07.868Z,20.57
2023-01-19T01:36:36.197Z,22.57
2023-01-19T01:39:07.065Z,22.17
2023-01-19T01:41:36.156Z,19.20
2023-01-19T01:44:25.875Z,24.73
2023-01-19T01:46:54.432Z,19.90
2023-01-19T01:49:23.344Z,22.70
2023-01-19T01:51:54.491Z,24.07
2023-01-19T01:54:28.460Z,21.13
2023-01-19T01:57:02.720Z,22.77
2023-01-19T01:59:39.058Z,25.27
2023-01-19T02:02:28.209Z,21.17
2023-01-19T02:05:00.915Z,21.33
2023-01-19T02:07:54.576Z,20.90
2023-01-19T02:10:42.088Z,22.80
2023-01-19T02:13:20.925Z,25.83
2023-01-19T02:15:50.981Z,24.63
2023-01-19T02:18:20.909Z,20.83
2023-01-19T02:20:58.349Z,21.30
2023-01-19T02:23:44.373Z,23.57
2023-01-19T02:26:16.347Z,24.17
2023-01-19T02:28:49.671Z,20.17
2023-01-19T02:31:18.528Z,27.37
2023-01-19T02:33:47.271Z,20.10
2023-01-19T02:36:18.251Z,21.30
2023-01-19T02:38:49.885Z,20.77
2023-01-19T02:41:22.730Z,22.37
2023-01-19T02:43:51.861Z,22.60
2023-01-19T02:46:20.478Z,22.40
2023-01-19T02:48:48.847Z,20.77
2023-01-19T02:51:22.474Z,24.50
2023-01-19T02:54:28.748Z,20.77
2023-01-19T02:57:15.577Z,22.67
2023-01-19T02:59:56.133Z,22.20
2023-01-19T03:02:36.081Z,21.53
2023-01-19T03:05:27.944Z,21.87
2023-01-19T03:08:03.431Z,20.03
2023-01-19T03:10:42.028Z,22.20
2023-01-19T03:13:15.921Z,19.23
2023-01-19T03:15:50.373Z,19.33
2023-01-19T03:18:23.305Z,20.30
2023-01-19T03:20:54.435Z,19.27
2023-01-19T03:23:27.565Z,17.83
2023-01-19T03:26:00.342Z,22.60
2023-01-19T03:28:32.652Z,20.73
2023-01-19T03:31:06.922Z,20.23
2023-01-19T03:33:39.211Z,22.47
2023-01-19T03:36:17.679Z,22.03
2023-01-19T03:38:50.511Z,19.77
2023-01-19T03:41:23.595Z,19.07
2023-01-19T03:43:54.865Z,20.23
2023-01-19T03:46:25.345Z,20.27
2023-01-19T03:48:55.210Z,22.33
2023-01-19T03:51:23.639Z,18.30
2023-01-19T03:53:52.323Z,19.53
2023-01-19T03:56:24.877Z,18.03
2023-01-19T03:58:55.061Z,22.13
2023-01-19T04:01:25.796Z,19.10
2023-01-19T04:03:54.957Z,18.37
2023-01-19T04:06:24.264Z,20.20
2023-01-19T04:08:53.000Z,19.10
2023-01-19T04:11:23.050Z,20.03
2023-01-19T04:13:51.678Z,19.13
2023-01-19T04:16:21.265Z,18.27
2023-01-19T04:18:50.130Z,22.80
2023-01-19T04:21:18.463Z,21.33
2023-01-19T04:23:47.463Z,20.70
2023-01-19T04:26:15.772Z,20.63
2023-01-19T04:28:45.516Z,20.40
2023-01-19T04:31:14.392Z,19.33
2023-01-19T04:33:42.773Z,22.87
2023-01-19T04:36:11.511Z,23.17
2023-01-19T04:38:39.884Z,20.80
2023-01-19T04:41:08.617Z,20.80
2023-01-19T04:43:36.952Z,20.27
2023-01-19T04:46:06.770Z,19.90
2023-01-19T04:48:35.220Z,21.43
2023-01-19T04:51:03.552Z,21.77
2023-01-19T04:53:31.871Z,21.17
2023-01-19T04:56:01.085Z,19.73
2023-01-19T04:58:31.055Z,18.53
2023-01-19T05:00:59.556Z,19.00
2023-01-19T05:03:29.752Z,22.80
2023-01-19T05:05:58.068Z,23.53
2023-01-19T05:08:28.296Z,22.57
2023-01-19T05:10:57.541Z,18.80
2023-01-19T05:13:26.381Z,21.97
2023-01-19T05:15:54.791Z,21.37
2023-01-19T05:18:23.380Z,21.43
2023-01-19T05:20:53.060Z,18.97
2023-01-19T05:23:21.826Z,23.13
2023-01-19T05:25:50.667Z,21.77
2023-01-19T05:28:21.179Z,23.03
2023-01-19T05:30:50.830Z,23.47
2023-01-19T05:33:19.210Z,27.53
2023-01-19T05:35:51.096Z,18.50
2023-01-19T05:38:34.350Z,22.40
2023-01-19T05:41:04.543Z,21.90
2023-01-19T05:43:33.822Z,19.53
2023-01-19T05:46:02.121Z,22.57
2023-01-19T05:48:31.388Z,24.57
2023-01-19T05:51:00.027Z,19.17
2023-01-19T05:53:30.739Z,22.37
2023-01-19T05:56:02.778Z,20.00
2023-01-19T05:58:32.315Z,24.13
2023-01-19T06:01:06.661Z,18.87
2023-01-19T06:03:36.249Z,20.80
2023-01-19T06:06:05.675Z,20.33
2023-01-19T06:08:35.393Z,19.73
2023-01-19T06:11:07.443Z,25.33
2023-01-19T06:13:36.059Z,30.77
2023-01-19T06:16:04.542Z,30.80
2023-01-19T06:18:34.156Z,23.17
2023-01-19T06:21:05.071Z,20.37
2023-01-19T06:23:37.185Z,20.20
2023-01-19T06:26:05.830Z,25.03
2023-01-19T06:28:34.165Z,22.40
2023-01-19T06:31:03.065Z,23.73
2023-01-19T06:33:31.521Z,23.53
2023-01-19T06:36:01.260Z,20.03
2023-01-19T06:38:29.707Z,21.03
2023-01-19T06:40:59.778Z,20.07
2023-01-19T06:43:28.377Z,24.17
2023-01-19T06:45:57.261Z,21.13
2023-01-19T06:48:25.792Z,18.47
2023-01-19T06:50:54.830Z,19.57
2023-01-19T06:53:23.168Z,21.77
2023-01-19T06:55:51.956Z,19.83
2023-01-19T06:58:22.227Z,21.13
2023-01-19T07:00:51.861Z,24.40
2023-01-19T07:03:23.711Z,26.47
2023-01-19T07:05:53.423Z,23.10
2023-01-19T07:08:22.053Z,24.57
2023-01-19T07:11:24.659Z,22.20
2023-01-19T07:13:42.947Z,26.63
2023-01-19T07:16:14.615Z,25.47
2023-01-19T07:18:43.252Z,26.20
2023-01-19T07:21:11.569Z,22.83
2023-01-19T07:23:39.952Z,22.23
2023-01-19T07:26:08.242Z,23.60
2023-01-19T07:28:37.329Z,22.37
2023-01-19T07:31:07.735Z,20.37
2023-01-19T07:33:36.174Z,22.17
2023-01-19T07:36:05.375Z,22.83
2023-01-19T07:38:33.672Z,25.53
2023-01-19T07:41:03.205Z,22.80
2023-01-19T07:43:31.910Z,23.17
2023-01-19T07:46:01.777Z,23.07
2023-01-19T07:48:31.543Z,22.60
2023-01-19T07:51:02.120Z,26.50
2023-01-19T07:53:30.452Z,23.30
2023-01-19T07:55:59.010Z,27.47
2023-01-19T07:58:27.777Z,25.57
2023-01-19T08:00:56.185Z,24.97
2023-01-19T08:03:25.138Z,22.27
2023-01-19T08:05:56.978Z,27.37
2023-01-19T08:08:25.634Z,27.20
2023-01-19T08:10:54.332Z,33.20
2023-01-19T08:13:22.645Z,26.57
2023-01-19T08:15:52.265Z,22.00
2023-01-19T08:18:21.474Z,21.23
2023-01-19T08:20:49.794Z,24.97
2023-01-19T08:23:20.261Z,21.07
2023-01-19T08:25:48.791Z,22.23
2023-01-19T08:28:19.376Z,23.87
2023-01-19T08:30:54.696Z,22.10
2023-01-19T08:33:25.227Z,21.10
2023-01-19T08:35:55.171Z,21.20
2023-01-19T08:38:24.848Z,24.53
2023-01-19T08:40:53.554Z,24.37
2023-01-19T08:43:21.846Z,20.43
2023-01-19T08:45:52.947Z,19.50
2023-01-19T08:48:25.255Z,18.20
2023-01-19T08:50:54.039Z,28.70
2023-01-19T08:53:25.139Z,20.43
2023-01-19T08:55:59.799Z,20.40
2023-01-19T08:58:29.038Z,21.67
2023-01-19T09:00:57.400Z,19.30
2023-01-19T09:03:26.202Z,20.17
2023-01-19T09:05:54.532Z,16.43
2023-01-19T09:08:24.718Z,16.93
2023-01-19T09:10:53.131Z,19.80
2023-01-19T09:13:21.738Z,19.20
2023-01-19T09:15:50.952Z,14.03
2023-01-19T09:18:21.675Z,13.70
2023-01-19T09:20:52.120Z,16.03
2023-01-19T09:23:24.079Z,19.90
2023-01-19T09:25:57.824Z,18.23
2023-01-19T09:28:26.375Z,14.33
2023-01-19T09:30:55.465Z,15.03
2023-01-19T09:33:24.662Z,15.53
2023-01-19T09:35:53.511Z,18.90
2023-01-19T09:38:24.908Z,22.13
2023-01-19T09:40:55.526Z,19.67
2023-01-19T09:43:36.763Z,19.30
2023-01-19T09:46:12.773Z,17.77
2023-01-19T09:48:45.769Z,14.27
2023-01-19T09:51:18.629Z,13.53
2023-01-19T09:53:55.529Z,15.97
2023-01-19T09:56:25.613Z,15.50
2023-01-19T09:58:54.371Z,14.20
2023-01-19T10:01:38.887Z,15.07
2023-01-19T10:04:26.914Z,12.40
2023-01-19T10:07:05.144Z,13.60
2023-01-19T10:09:46.563Z,12.10
2023-01-19T10:12:30.019Z,11.80
2023-01-19T10:15:07.924Z,11.43
2023-01-19T10:17:53.747Z,15.57
2023-01-19T10:20:46.586Z,11.87
2023-01-19T10:23:23.382Z,10.90
2023-01-19T10:27:51.714Z,12.77
2023-01-19T10:33:55.904Z,12.67
2023-01-19T10:36:30.627Z,10.57
2023-01-19T10:38:59.342Z,9.17
2023-01-19T10:41:40.327Z,10.23
2023-01-19T10:44:24.296Z,13.23
2023-01-19T10:46:59.404Z,7.57
2023-01-19T10:52:54.243Z,9.07
2023-01-19T10:55:35.196Z,9.50
2023-01-19T10:58:33.283Z,10.17
2023-01-19T11:01:16.218Z,9.53
2023-01-19T11:03:45.919Z,7.63
2023-01-19T11:06:35.531Z,11.30
2023-01-19T11:09:13.874Z,9.03
2023-01-19T11:11:56.190Z,9.13
2023-01-19T11:14:43.683Z,8.73
2023-01-19T11:18:04.448Z,9.43
2023-01-19T11:21:00.943Z,7.67
2023-01-19T11:24:10.465Z,10.13
2023-01-19T11:26:47.855Z,13.37
2023-01-19T11:29:36.502Z,8.67
2023-01-19T11:32:37.459Z,10.20
2023-01-19T11:38:58.907Z,9.23
2023-01-19T11:41:29.912Z,9.73
2023-01-19T11:44:31.426Z,10.67
2023-01-19T11:47:35.095Z,7.10
2023-01-19T11:50:27.533Z,7.93
2023-01-19T11:53:07.394Z,10.63
2023-01-19T11:55:47.842Z,9.87
2023-01-19T11:58:40.222Z,7.27
2023-01-19T12:01:32.622Z,6.43
2023-01-19T12:04:15.990Z,7.43
2023-01-19T12:06:53.720Z,9.20
2023-01-19T12:09:35.076Z,8.90
2023-01-19T12:12:27.916Z,7.27
2023-01-19T12:16:08.032Z,7.83
2023-01-19T12:18:56.307Z,9.03
2023-01-19T12:21:35.746Z,7.50
2023-01-19T12:24:43.597Z,10.57
2023-01-19T12:27:30.450Z,8.37
2023-01-19T12:30:02.292Z,10.30
2023-01-19T12:32:44.128Z,8.73
2023-01-19T12:35:46.704Z,11.40
2023-01-19T12:38:37.293Z,10.67
2023-01-19T12:41:21.364Z,9.80
2023-01-19T12:44:06.408Z,17.43
2023-01-19T12:46:34.961Z,7.33
2023-01-19T12:49:06.601Z,9.87
2023-01-19T12:51:35.148Z,9.40
2023-01-19T12:54:21.053Z,7.47
2023-01-19T12:56:50.621Z,14.70
2023-01-19T12:59:26.572Z,10.60
2023-01-19T13:02:34.580Z,14.23
2023-01-19T13:05:15.947Z,14.60
2023-01-19T13:08:23.731Z,8.30
2023-01-19T13:11:21.047Z,9.70
2023-01-19T13:14:28.311Z,9.43
2023-01-19T13:17:18.298Z,11.27
2023-01-19T13:19:58.310Z,12.33
2023-01-19T13:23:03.667Z,9.90
2023-01-19T13:25:35.490Z,11.23
2023-01-19T13:28:11.967Z,10.77
2023-01-19T13:30:56.949Z,8.77
2023-01-19T13:33:29.242Z,11.53
2023-01-19T13:35:59.469Z,12.83
2023-01-19T13:38:34.474Z,10.10
2023-01-19T13:41:13.888Z,8.70
2023-01-19T13:43:44.602Z,12.93
2023-01-19T13:46:54.064Z,9.13
2023-01-19T13:49:30.729Z,12.17
2023-01-19T13:52:07.206Z,9.80
2023-01-19T13:54:36.143Z,10.67
2023-01-19T13:57:05.185Z,8.17
2023-01-19T13:59:36.584Z,7.87
2023-01-19T14:02:14.722Z,10.63
2023-01-19T14:04:47.355Z,13.17
2023-01-19T14:07:26.272Z,9.90
2023-01-19T14:10:05.155Z,8.70
2023-01-19T14:12:35.977Z,11.23
2023-01-19T14:15:14.064Z,8.63
2023-01-19T14:17:43.834Z,9.93
2023-01-19T14:20:30.707Z,10.67
2023-01-19T14:22:59.948Z,12.03
2023-01-19T14:25:31.638Z,9.77
2023-01-19T14:28:31.026Z,10.60
2023-01-19T14:31:03.475Z,10.03
2023-01-19T14:33:37.097Z,10.37
2023-01-19T14:36:25.877Z,11.00
2023-01-19T14:38:57.043Z,16.23
2023-01-19T14:41:30.103Z,11.73
2023-01-19T14:44:01.538Z,10.60
2023-01-19T14:46:31.471Z,9.40
2023-01-19T14:49:04.188Z,9.87
2023-01-19T14:51:33.308Z,16.60
2023-01-19T14:54:03.582Z,19.53
2023-01-19T14:56:34.104Z,22.73
2023-01-19T14:59:03.720Z,13.87
2023-01-19T15:01:36.003Z,9.80
2023-01-19T15:04:04.562Z,12.87
2023-01-19T15:06:35.512Z,10.87
2023-01-19T15:09:04.255Z,17.77
2023-01-19T15:11:36.027Z,13.10
2023-01-19T15:14:04.909Z,12.60
2023-01-19T15:16:37.732Z,11.87
2023-01-19T15:19:12.497Z,12.97
2023-01-19T15:21:42.355Z,16.40
2023-01-19T15:24:11.793Z,17.33
2023-01-19T15:26:42.070Z,17.80
2023-01-19T15:29:23.947Z,16.47
2023-01-19T15:31:54.211Z,15.43
2023-01-19T15:34:22.610Z,18.50
2023-01-19T15:36:52.970Z,68.03
2023-01-19T15:39:21.879Z,39.87
2023-01-19T15:41:50.317Z,23.07
2023-01-19T15:44:19.650Z,17.20
2023-01-19T15:46:48.113Z,16.53
2023-01-19T15:49:18.603Z,15.20
2023-01-19T15:51:47.669Z,15.70
2023-01-19T15:54:17.469Z,13.00
2023-01-19T15:56:46.513Z,15.63
2023-01-19T15:59:15.138Z,13.67
2023-01-19T16:01:44.370Z,13.93
2023-01-19T16:04:13.223Z,11.93
2023-01-19T16:06:43.572Z,12.57
2023-01-19T16:09:17.276Z,14.07
2023-01-19T16:11:46.076Z,12.57
2023-01-19T16:14:17.349Z,13.27
2023-01-19T16:16:46.214Z,14.03
2023-01-19T16:19:16.712Z,13.80
2023-01-19T16:21:47.007Z,9.07
2023-01-19T16:24:15.549Z,11.37
2023-01-19T16:26:46.618Z,10.87
2023-01-19T16:29:15.859Z,14.50
2023-01-19T16:31:45.486Z,15.37
2023-01-19T16:34:15.794Z,11.57
2023-01-19T16:36:44.124Z,16.03
2023-01-19T16:39:16.756Z,18.67
2023-01-19T16:41:48.540Z,12.60
2023-01-19T16:44:19.242Z,12.30
2023-01-19T16:46:49.815Z,13.37
2023-01-19T16:49:21.452Z,16.17
2023-01-19T16:51:51.155Z,19.57
2023-01-19T16:54:26.376Z,11.03
2023-01-19T16:56:56.815Z,10.97
2023-01-19T16:59:27.441Z,10.07
2023-01-19T17:01:56.971Z,8.40
2023-01-19T17:04:26.466Z,10.63
2023-01-19T17:07:10.232Z,9.13
2023-01-19T17:09:40.147Z,11.27
2023-01-19T17:12:10.614Z,9.30
2023-01-19T17:14:39.968Z,27.30
2023-01-19T17:17:10.379Z,15.43
2023-01-19T17:19:40.366Z,15.77
2023-01-19T17:22:09.525Z,15.43
2023-01-19T17:24:42.501Z,22.57
2023-01-19T17:27:13.634Z,18.20
2023-01-19T17:29:42.320Z,13.77
2023-01-19T17:32:17.700Z,13.00
2023-01-19T17:34:51.686Z,13.87
2023-01-19T17:37:23.437Z,11.33
2023-01-19T17:39:53.724Z,10.37
